createdAt,value
2023-01-29T00:04:20.771Z,15.95
2023-01-29T00:07:08.722Z,16.02
2023-01-29T00:09:55.931Z,16.73
2023-01-29T00:12:47.671Z,17.67
2023-01-29T00:15:34.771Z,18.67
2023-01-29T00:18:22.104Z,18.60
2023-01-29T00:21:19.492Z,17.05
2023-01-29T00:24:11.193Z,17.10
2023-01-29T00:34:43.179Z,18.30
2023-01-29T00:37:30.059Z,16.08
2023-01-29T00:40:19.100Z,17.73
2023-01-29T00:43:24.580Z,18.25
2023-01-29T00:46:11.539Z,18.13
2023-01-29T00:49:02.085Z,19.45
2023-01-29T00:52:07.501Z,17.90
2023-01-29T00:54:56.291Z,20.02
2023-01-29T00:57:42.798Z,18.75
2023-01-29T01:00:30.231Z,20.30
2023-01-29T01:03:18.132Z,19.90
2023-01-29T01:06:09.837Z,18.73
2023-01-29T01:09:14.639Z,18.27
2023-01-29T01:12:02.675Z,18.77
2023-01-29T01:14:49.383Z,16.17
2023-01-29T01:17:37.451Z,16.60
2023-01-29T01:20:25.499Z,16.20
2023-01-29T01:23:12.478Z,15.60
2023-01-29T01:25:59.323Z,14.63
2023-01-29T01:28:45.836Z,15.10
2023-01-29T01:31:32.259Z,15.18
2023-01-29T01:34:19.500Z,13.85
2023-01-29T01:37:08.367Z,14.45
2023-01-29T01:39:58.778Z,13.15
2023-01-29T01:42:48.915Z,13.30
2023-01-29T01:45:37.687Z,14.27
2023-01-29T01:48:25.404Z,13.38
2023-01-29T01:51:12.686Z,12.68
2023-01-29T01:54:09.286Z,12.20
2023-01-29T01:57:09.312Z,12.95
2023-01-29T02:00:10.561Z,12.23
2023-01-29T02:03:24.846Z,10.98
2023-01-29T02:06:30.326Z,11.90
2023-01-29T02:09:36.208Z,11.27
2023-01-29T02:12:23.471Z,9.95
2023-01-29T02:15:11.173Z,11.00
2023-01-29T02:17:57.393Z,11.15
2023-01-29T02:21:07.957Z,12.93
2023-01-29T02:24:28.439Z,11.68
2023-01-29T02:27:28.017Z,10.35
2023-01-29T02:30:34.803Z,9.38
2023-01-29T02:33:38.804Z,9.00
2023-01-29T02:36:43.457Z,8.60
2023-01-29T02:39:42.319Z,8.77
2023-01-29T02:42:49.296Z,9.07
2023-01-29T02:45:45.276Z,9.60
2023-01-29T02:48:54.881Z,8.63
2023-01-29T02:51:51.821Z,8.60
2023-01-29T02:54:46.187Z,9.40
2023-01-29T02:57:36.354Z,9.23
2023-01-29T03:00:31.007Z,7.90
2023-01-29T03:03:25.510Z,8.35
2023-01-29T03:06:24.330Z,8.93
2023-01-29T03:09:25.778Z,8.10
2023-01-29T03:12:36.999Z,8.07
2023-01-29T03:15:29.259Z,7.22
2023-01-29T03:18:43.822Z,7.68
2023-01-29T03:21:55.392Z,7.95
2023-01-29T03:25:23.031Z,7.43
2023-01-29T03:28:29.231Z,7.25
2023-01-29T03:31:36.519Z,7.32
2023-01-29T03:34:24.885Z,7.90
2023-01-29T03:37:27.537Z,8.23
2023-01-29T03:40:15.430Z,7.72
2023-01-29T03:43:11.546Z,8.50
2023-01-29T03:46:45.889Z,8.43
2023-01-29T03:49:41.500Z,7.63
2023-01-29T03:52:40.273Z,7.55
2023-01-29T03:55:43.246Z,6.82
2023-01-29T03:58:59.907Z,7.88
2023-01-29T04:02:02.115Z,7.05
2023-01-29T04:04:52.062Z,7.28
2023-01-29T04:07:43.122Z,7.65
2023-01-29T04:10:32.792Z,7.22
2023-01-29T04:13:20.280Z,8.07
2023-01-29T04:16:14.988Z,6.82
2023-01-29T04:19:24.184Z,7.47
2023-01-29T04:22:49.050Z,7.20
2023-01-29T04:25:45.472Z,6.60
2023-01-29T04:29:10.711Z,6.68
2023-01-29T04:32:05.514Z,7.60
2023-01-29T04:34:56.199Z,7.57
2023-01-29T04:37:49.059Z,7.60
2023-01-29T04:40:43.307Z,7.53
2023-01-29T04:43:46.321Z,7.88
2023-01-29T04:46:38.793Z,7.03
2023-01-29T04:49:40.901Z,7.10
2023-01-29T04:52:30.034Z,8.07
2023-01-29T04:55:26.108Z,7.13
2023-01-29T04:58:35.345Z,10.07
2023-01-29T05:01:25.871Z,8.38
2023-01-29T05:04:14.878Z,7.97
2023-01-29T05:07:04.413Z,7.30
2023-01-29T05:09:51.537Z,6.82
2023-01-29T05:12:38.949Z,8.48
2023-01-29T05:15:35.808Z,8.00
2023-01-29T05:18:22.484Z,9.48
2023-01-29T05:21:09.714Z,9.15
2023-01-29T05:24:23.398Z,8.75
2023-01-29T05:27:44.130Z,8.15
2023-01-29T05:30:32.332Z,8.07
2023-01-29T05:33:24.426Z,8.13
2023-01-29T05:36:11.002Z,8.85
2023-01-29T05:38:57.484Z,8.45
2023-01-29T05:41:44.297Z,8.55
2023-01-29T05:44:30.931Z,8.48
2023-01-29T05:47:20.769Z,7.97
2023-01-29T05:50:09.802Z,8.55
2023-01-29T05:53:00.746Z,8.85
2023-01-29T05:55:48.124Z,7.90
2023-01-29T05:58:34.982Z,8.38
2023-01-29T06:01:23.647Z,8.75
2023-01-29T06:04:10.306Z,8.95
2023-01-29T06:06:59.697Z,8.02
2023-01-29T06:09:46.497Z,7.85
2023-01-29T06:12:33.025Z,8.35
2023-01-29T06:15:20.044Z,8.32
2023-01-29T06:18:06.303Z,8.48
2023-01-29T06:20:53.119Z,8.88
2023-01-29T06:23:40.097Z,7.97
2023-01-29T06:26:27.099Z,8.65
2023-01-29T06:29:13.733Z,8.90
2023-01-29T06:32:00.360Z,8.52
2023-01-29T06:34:49.461Z,7.85
2023-01-29T06:37:39.017Z,9.10
2023-01-29T06:40:27.231Z,10.38
2023-01-29T06:43:14.054Z,9.95
2023-01-29T06:46:00.729Z,10.27
2023-01-29T06:48:47.540Z,10.60
2023-01-29T06:51:38.895Z,9.85
2023-01-29T06:54:29.484Z,10.63
2023-01-29T06:57:16.043Z,10.37
2023-01-29T07:00:03.120Z,10.43
2023-01-29T07:02:50.491Z,10.18
2023-01-29T07:05:37.981Z,9.73
2023-01-29T07:08:24.183Z,10.25
2023-01-29T07:11:11.025Z,10.05
2023-01-29T07:14:00.609Z,9.88
2023-01-29T07:16:50.685Z,10.70
2023-01-29T07:19:37.033Z,10.45
2023-01-29T07:22:23.546Z,10.10
2023-01-29T07:25:10.296Z,11.45
2023-01-29T07:27:57.767Z,10.35
2023-01-29T07:30:44.726Z,10.60
2023-01-29T07:33:32.018Z,11.48
2023-01-29T07:36:18.131Z,10.90
2023-01-29T07:39:05.051Z,10.85
2023-01-29T07:41:51.521Z,10.25
2023-01-29T07:44:38.151Z,10.27
2023-01-29T07:47:24.214Z,10.98
2023-01-29T07:50:11.273Z,9.93
2023-01-29T07:52:58.046Z,10.88
2023-01-29T07:55:45.490Z,10.00
2023-01-29T07:58:33.931Z,11.85
2023-01-29T08:01:22.129Z,19.00
2023-01-29T08:04:08.349Z,36.95
2023-01-29T08:06:55.550Z,19.10
2023-01-29T08:09:42.160Z,29.58
2023-01-29T08:12:29.058Z,20.08
2023-01-29T08:15:15.541Z,29.33
2023-01-29T08:22:49.732Z,26.20
2023-01-29T08:25:39.225Z,29.50
2023-01-29T08:28:27.545Z,29.67
2023-01-29T08:31:18.331Z,29.85
2023-01-29T08:34:04.811Z,27.60
2023-01-29T08:36:51.717Z,24.50
2023-01-29T08:39:38.398Z,18.88
2023-01-29T08:42:25.134Z,19.15
2023-01-29T08:45:13.971Z,18.35
2023-01-29T08:48:52.908Z,22.20
2023-01-29T08:52:34.203Z,16.73
2023-01-29T08:58:12.725Z,16.35
2023-01-29T09:01:11.118Z,18.98
2023-01-29T09:03:57.845Z,37.47
2023-01-29T09:06:44.251Z,16.05
2023-01-29T09:09:31.301Z,17.13
2023-01-29T09:12:21.085Z,20.25
2023-01-29T09:15:08.546Z,23.58
2023-01-29T09:17:55.202Z,17.40
2023-01-29T09:20:48.035Z,18.50
2023-01-29T09:23:36.307Z,23.23
2023-01-29T09:26:23.321Z,24.77
2023-01-29T09:29:12.874Z,26.02
2023-01-29T09:31:59.800Z,22.10
2023-01-29T09:34:46.015Z,23.33
2023-01-29T09:37:32.760Z,21.50
2023-01-29T09:40:58.381Z,22.50
2023-01-29T09:43:46.744Z,21.35
2023-01-29T09:46:41.405Z,63.05
2023-01-29T09:49:35.930Z,46.38
2023-01-29T09:52:28.267Z,33.63
2023-01-29T09:55:28.155Z,33.22
2023-01-29T09:58:20.004Z,42.78
2023-01-29T10:01:45.801Z,39.03
2023-01-29T10:05:09.910Z,31.08
2023-01-29T10:08:17.038Z,20.13
2023-01-29T10:11:26.803Z,21.52
2023-01-29T10:14:38.038Z,19.35
2023-01-29T10:17:35.351Z,19.02
2023-01-29T10:20:43.169Z,20.00
2023-01-29T10:23:39.065Z,20.38
2023-01-29T10:26:29.711Z,16.63
2023-01-29T10:29:19.849Z,20.98
2023-01-29T10:32:06.968Z,17.67
2023-01-29T10:35:00.173Z,20.38
2023-01-29T10:37:47.088Z,19.20
2023-01-29T10:41:04.364Z,15.32
2023-01-29T10:44:29.220Z,16.30
2023-01-29T10:47:40.631Z,50.60
2023-01-29T10:50:39.749Z,48.03
2023-01-29T10:53:43.155Z,69.95
2023-01-29T10:56:47.908Z,49.15
2023-01-29T10:59:43.649Z,29.63
2023-01-29T11:02:30.834Z,20.83
2023-01-29T11:05:27.217Z,22.27
2023-01-29T11:08:17.707Z,21.95
2023-01-29T11:11:11.927Z,20.65
2023-01-29T11:14:07.300Z,15.77
2023-01-29T11:17:02.222Z,18.88
2023-01-29T11:19:53.413Z,17.60
2023-01-29T11:22:54.408Z,16.30
2023-01-29T11:25:52.736Z,17.33
2023-01-29T11:28:44.758Z,18.38
2023-01-29T11:31:38.763Z,17.05
2023-01-29T11:34:30.542Z,19.13
2023-01-29T11:40:45.019Z,31.67
2023-01-29T11:43:32.810Z,17.90
2023-01-29T11:46:26.568Z,21.10
2023-01-29T11:49:23.819Z,19.73
2023-01-29T11:52:12.230Z,17.15
2023-01-29T11:55:02.411Z,17.35
2023-01-29T11:58:38.153Z,18.88
2023-01-29T12:01:35.279Z,17.63
2023-01-29T12:04:24.312Z,18.55
2023-01-29T12:11:34.999Z,18.23
2023-01-29T12:14:44.112Z,22.00
2023-01-29T12:17:33.858Z,19.60
2023-01-29T12:20:26.818Z,17.60
2023-01-29T12:23:42.291Z,17.95
2023-01-29T12:26:55.223Z,28.25
2023-01-29T12:30:08.076Z,23.35
2023-01-29T12:33:15.675Z,22.00
2023-01-29T12:36:15.054Z,20.17
2023-01-29T12:39:01.574Z,18.77
2023-01-29T12:42:08.754Z,17.35
2023-01-29T12:45:03.019Z,21.90
2023-01-29T12:47:59.124Z,20.70
2023-01-29T12:50:46.409Z,18.85
2023-01-29T12:53:37.762Z,23.17
2023-01-29T12:56:32.970Z,20.55
2023-01-29T12:59:33.299Z,19.65
2023-01-29T13:02:46.350Z,28.40
2023-01-29T13:05:39.162Z,19.92
2023-01-29T13:08:29.762Z,21.63
2023-01-29T13:11:22.420Z,17.27
2023-01-29T13:14:23.356Z,18.58
2023-01-29T13:20:19.905Z,17.67
2023-01-29T13:23:16.233Z,18.70
2023-01-29T13:26:03.051Z,18.70
2023-01-29T13:28:50.140Z,20.63
2023-01-29T13:31:41.397Z,19.95
2023-01-29T13:34:31.847Z,31.88
2023-01-29T13:37:28.289Z,20.13
2023-01-29T13:40:25.211Z,20.20
2023-01-29T13:43:20.045Z,18.83
2023-01-29T13:46:15.885Z,19.92
2023-01-29T13:49:05.124Z,27.95
2023-01-29T13:51:52.245Z,19.40
2023-01-29T13:54:41.919Z,24.52
2023-01-29T13:57:37.084Z,20.35
2023-01-29T14:00:31.055Z,19.20
2023-01-29T14:03:18.219Z,20.52
2023-01-29T14:06:05.596Z,28.50
2023-01-29T14:08:52.452Z,23.58
2023-01-29T14:11:48.425Z,22.98
2023-01-29T14:14:48.673Z,19.35
2023-01-29T14:17:40.588Z,19.40
2023-01-29T14:20:46.062Z,21.77
2023-01-29T14:23:41.707Z,19.08
2023-01-29T14:26:34.134Z,19.35
2023-01-29T14:29:34.365Z,22.20
2023-01-29T14:32:26.362Z,20.30
2023-01-29T14:35:23.903Z,21.92
2023-01-29T14:38:14.498Z,23.40
2023-01-29T14:41:20.944Z,24.92
2023-01-29T14:44:45.392Z,22.85
2023-01-29T14:47:33.765Z,20.58
2023-01-29T14:50:30.085Z,20.30
2023-01-29T14:53:43.405Z,21.05
2023-01-29T14:56:59.686Z,21.10
2023-01-29T15:00:11.843Z,19.67
2023-01-29T15:03:06.408Z,19.15
2023-01-29T15:06:07.447Z,21.25
2023-01-29T15:09:36.321Z,25.90
2023-01-29T15:12:40.407Z,21.88
2023-01-29T15:15:51.856Z,23.25
2023-01-29T15:18:44.354Z,23.60
2023-01-29T15:21:47.257Z,22.45
2023-01-29T15:24:39.206Z,19.42
2023-01-29T15:27:51.780Z,21.35
2023-01-29T15:30:39.185Z,22.50
2023-01-29T15:38:43.028Z,18.38
2023-01-29T15:41:29.573Z,21.08
2023-01-29T15:44:23.905Z,19.98
2023-01-29T15:47:10.797Z,18.75
2023-01-29T15:49:58.081Z,17.42
2023-01-29T15:52:49.336Z,17.95
2023-01-29T16:02:42.171Z,16.75
2023-01-29T16:05:30.481Z,16.83
2023-01-29T16:08:31.020Z,19.52
2023-01-29T16:11:27.025Z,20.95
2023-01-29T16:14:23.188Z,20.88
2023-01-29T16:17:35.238Z,23.25
2023-01-29T16:21:09.103Z,21.13
2023-01-29T16:24:07.074Z,19.70
2023-01-29T16:27:02.798Z,19.10
2023-01-29T16:29:51.876Z,19.85
2023-01-29T16:32:38.384Z,20.38
2023-01-29T16:35:25.211Z,20.83
2023-01-29T16:38:33.185Z,19.35
2023-01-29T16:41:23.766Z,20.27
2023-01-29T16:44:17.250Z,21.20
2023-01-29T16:47:40.096Z,20.13
2023-01-29T16:50:40.712Z,21.55
2023-01-29T16:54:00.225Z,20.52
2023-01-29T16:57:04.335Z,21.60
2023-01-29T17:02:48.086Z,18.38
2023-01-29T17:05:38.580Z,18.50
2023-01-29T17:08:33.360Z,20.13
2023-01-29T17:11:31.815Z,19.80
2023-01-29T17:14:20.991Z,20.25
2023-01-29T17:17:15.484Z,22.08
2023-01-29T17:20:19.218Z,57.72
2023-01-29T17:23:05.938Z,22.40
2023-01-29T17:25:52.380Z,37.17
2023-01-29T17:28:40.111Z,33.20
2023-01-29T17:31:26.598Z,26.02
2023-01-29T17:34:15.611Z,31.15
2023-01-29T17:37:01.860Z,33.05
2023-01-29T17:39:50.693Z,48.25
2023-01-29T17:42:37.071Z,32.45
2023-01-29T17:45:23.749Z,21.73
2023-01-29T17:48:23.214Z,23.80
2023-01-29T17:51:14.763Z,24.75
2023-01-29T17:54:01.355Z,31.13
2023-01-29T17:56:48.538Z,32.53
2023-01-29T17:59:35.171Z,26.13
2023-01-29T18:02:29.553Z,31.75
2023-01-29T18:05:17.451Z,28.17
2023-01-29T18:08:05.041Z,37.20
2023-01-29T18:10:51.957Z,29.10
2023-01-29T18:13:42.096Z,23.23
2023-01-29T18:16:29.409Z,49.33
2023-01-29T18:19:22.688Z,27.70
2023-01-29T18:22:09.331Z,25.73
2023-01-29T18:24:56.277Z,29.60
2023-01-29T18:27:42.997Z,27.35
2023-01-29T18:30:30.728Z,26.77
2023-01-29T18:33:18.162Z,27.25
2023-01-29T18:41:27.281Z,28.38
2023-01-29T18:44:13.690Z,30.15
2023-01-29T18:47:00.917Z,25.35
2023-01-29T18:49:47.184Z,28.08
2023-01-29T18:52:34.537Z,24.70
2023-01-29T18:55:22.127Z,31.25
2023-01-29T18:58:27.841Z,24.60
2023-01-29T19:01:17.263Z,28.67
2023-01-29T19:04:03.790Z,29.42
2023-01-29T19:06:50.205Z,30.55
2023-01-29T19:09:38.016Z,27.85
2023-01-29T19:12:46.692Z,27.67
2023-01-29T19:15:34.924Z,27.30
2023-01-29T19:18:21.783Z,25.88
2023-01-29T19:21:11.576Z,27.00
2023-01-29T19:23:58.276Z,25.05
2023-01-29T19:26:47.174Z,26.92
2023-01-29T19:29:34.504Z,20.63
2023-01-29T19:32:20.868Z,23.30
2023-01-29T19:35:07.567Z,25.88
2023-01-29T19:37:54.612Z,23.58
2023-01-29T19:48:14.680Z,25.27
2023-01-29T19:51:40.204Z,23.52
2023-01-29T19:54:27.933Z,23.75
2023-01-29T19:57:15.180Z,22.17
2023-01-29T20:00:02.302Z,24.75
2023-01-29T20:02:51.005Z,26.30
2023-01-29T20:05:37.737Z,22.77
2023-01-29T20:08:24.849Z,22.10
2023-01-29T20:11:13.627Z,24.38
2023-01-29T20:14:00.040Z,21.95
2023-01-29T20:16:49.538Z,21.15
2023-01-29T20:19:36.172Z,21.55
2023-01-29T20:22:22.560Z,22.40
2023-01-29T20:25:09.699Z,22.17
2023-01-29T20:27:56.039Z,21.98
2023-01-29T20:30:46.182Z,24.65
2023-01-29T20:33:33.717Z,19.42
2023-01-29T20:36:20.753Z,24.02
2023-01-29T20:39:07.043Z,21.25
2023-01-29T20:41:53.575Z,20.35
2023-01-29T20:44:40.389Z,20.35
2023-01-29T20:47:27.274Z,20.50
2023-01-29T20:50:15.194Z,18.67
2023-01-29T20:53:20.413Z,20.05
2023-01-29T21:01:23.717Z,17.63
2023-01-29T21:04:10.166Z,19.33
2023-01-29T21:06:56.625Z,18.00
2023-01-29T21:09:43.209Z,17.98
2023-01-29T21:12:30.347Z,17.75
2023-01-29T21:15:16.867Z,19.35
2023-01-29T21:18:04.656Z,20.60
2023-01-29T21:20:50.789Z,19.10
2023-01-29T21:23:37.569Z,18.73
2023-01-29T21:26:23.820Z,18.67
2023-01-29T21:29:11.645Z,19.77
2023-01-29T21:32:00.864Z,18.73
2023-01-29T21:34:47.612Z,17.40
2023-01-29T21:37:37.065Z,17.20
2023-01-29T21:40:27.330Z,17.73
2023-01-29T21:43:15.570Z,18.73
2023-01-29T21:46:12.166Z,17.92
2023-01-29T21:48:58.870Z,21.38
2023-01-29T21:51:45.645Z,17.85
2023-01-29T21:54:35.568Z,15.38
2023-01-29T21:57:26.739Z,17.08
2023-01-29T22:00:14.148Z,16.73
2023-01-29T22:03:01.251Z,19.02
2023-01-29T22:05:47.523Z,16.35
2023-01-29T22:08:34.810Z,15.30
2023-01-29T22:11:23.337Z,15.18
2023-01-29T22:14:10.543Z,18.80
2023-01-29T22:16:59.076Z,16.30
2023-01-29T22:19:48.831Z,15.52
2023-01-29T22:22:35.016Z,15.63
2023-01-29T22:25:21.516Z,16.10
2023-01-29T22:28:07.793Z,15.88
2023-01-29T22:31:01.231Z,14.02
2023-01-29T22:33:47.535Z,14.55
2023-01-29T22:36:34.640Z,13.88
2023-01-29T22:39:21.255Z,14.07
2023-01-29T22:42:08.228Z,13.43
2023-01-29T22:44:54.443Z,12.52
2023-01-29T22:47:41.457Z,13.10
2023-01-29T22:50:27.778Z,13.30
2023-01-29T22:53:14.744Z,13.98
2023-01-29T22:56:00.802Z,14.00
2023-01-29T22:59:11.048Z,13.15
2023-01-29T23:01:57.539Z,14.50
2023-01-29T23:04:44.147Z,13.07
2023-01-29T23:07:30.533Z,14.18
2023-01-29T23:10:22.201Z,13.15
2023-01-29T23:16:02.987Z,12.00
2023-01-29T23:18:51.520Z,12.50
2023-01-29T23:21:38.137Z,12.57
2023-01-29T23:24:24.329Z,12.63
2023-01-29T23:27:16.851Z,12.40
2023-01-29T23:30:06.996Z,12.15
2023-01-29T23:37:51.652Z,12.05
2023-01-29T23:40:59.919Z,12.43
2023-01-29T23:43:46.303Z,12.57
2023-01-29T23:46:32.982Z,12.30
2023-01-29T23:49:19.969Z,11.93
2023-01-29T23:52:06.427Z,12.13
2023-01-29T23:54:53.552Z,11.50
2023-01-29T23:57:39.793Z,12.70
